createdAt,value
2019-03-27T00:01:33.990Z,2.60
2019-03-27T00:04:05.259Z,2.56
2019-03-27T00:06:36.507Z,2.48
2019-03-27T00:09:07.925Z,2.47
2019-03-27T00:11:39.004Z,2.35
2019-03-27T00:14:10.255Z,2.33
2019-03-27T00:16:41.340Z,2.31
2019-03-27T00:19:12.608Z,2.21
2019-03-27T00:21:43.754Z,2.06
2019-03-27T00:24:14.887Z,1.97
2019-03-27T00:26:45.979Z,1.85
2019-03-27T00:29:17.078Z,1.59
2019-03-27T00:31:48.210Z,1.46
2019-03-27T00:34:19.336Z,1.26
2019-03-27T00:36:50.504Z,1.12
2019-03-27T00:39:21.695Z,1.09
2019-03-27T00:41:53.004Z,1.08
2019-03-27T00:44:24.329Z,1.12
2019-03-27T00:46:55.485Z,1.17
2019-03-27T00:49:26.693Z,1.13
2019-03-27T00:51:57.928Z,1.07
2019-03-27T00:54:29.880Z,1.09
2019-03-27T00:57:01.057Z,1.07
2019-03-27T00:59:32.188Z,1.16
2019-03-27T01:02:03.400Z,1.22
2019-03-27T01:04:34.598Z,1.25
2019-03-27T01:07:05.834Z,1.31
2019-03-27T01:09:37.133Z,1.34
2019-03-27T01:12:08.390Z,1.43
2019-03-27T01:14:39.493Z,1.53
2019-03-27T01:17:10.590Z,1.69
2019-03-27T01:19:41.708Z,1.61
2019-03-27T01:22:12.951Z,1.60
2019-03-27T01:24:44.018Z,1.60
2019-03-27T01:27:15.173Z,1.59
2019-03-27T01:29:46.390Z,1.60
2019-03-27T01:32:17.535Z,1.61
2019-03-27T01:34:48.824Z,1.60
2019-03-27T01:37:20.200Z,1.56
2019-03-27T01:39:51.353Z,1.55
2019-03-27T01:42:22.628Z,1.45
2019-03-27T01:44:53.814Z,1.25
2019-03-27T01:47:24.994Z,1.08
2019-03-27T01:49:56.168Z,1.10
2019-03-27T01:52:27.338Z,0.90
2019-03-27T01:54:58.484Z,0.82
2019-03-27T01:57:29.607Z,0.81
2019-03-27T02:00:00.741Z,0.79
2019-03-27T02:02:31.994Z,0.71
2019-03-27T02:05:03.270Z,0.53
2019-03-27T02:07:34.484Z,0.69
2019-03-27T02:10:06.755Z,0.73
2019-03-27T02:12:38.044Z,0.78
2019-03-27T02:15:10.634Z,0.69
2019-03-27T02:17:42.799Z,0.70
2019-03-27T02:20:14.603Z,0.73
2019-03-27T02:22:45.700Z,0.81
2019-03-27T02:25:16.780Z,0.60
2019-03-27T02:27:48.119Z,0.33
2019-03-27T02:30:19.305Z,0.24
2019-03-27T02:32:50.551Z,0.13
2019-03-27T02:35:21.715Z,0.11
2019-03-27T02:37:53.025Z,0.17
2019-03-27T02:40:24.100Z,0.30
2019-03-27T02:42:55.335Z,0.42
2019-03-27T02:45:26.555Z,0.46
2019-03-27T02:47:57.944Z,0.46
2019-03-27T02:50:29.204Z,0.46
2019-03-27T02:53:00.521Z,0.42
2019-03-27T02:55:31.672Z,0.39
2019-03-27T02:58:02.944Z,0.38
2019-03-27T03:00:34.797Z,0.31
2019-03-27T03:03:06.170Z,0.30
2019-03-27T03:05:37.445Z,0.31
2019-03-27T03:08:08.761Z,0.15
2019-03-27T03:10:40.024Z,0.18
2019-03-27T03:13:11.300Z,0.09
2019-03-27T03:15:42.525Z,0.03
2019-03-27T03:18:13.820Z,0.00
2019-03-27T03:20:45.050Z,-0.10
2019-03-27T03:23:17.194Z,-0.13
2019-03-27T03:25:48.419Z,-0.21
2019-03-27T03:28:19.760Z,-0.19
2019-03-27T03:30:50.869Z,-0.25
2019-03-27T03:33:21.979Z,-0.42
2019-03-27T03:35:53.261Z,-0.62
2019-03-27T03:38:24.409Z,-0.70
2019-03-27T03:40:55.830Z,-0.68
2019-03-27T03:43:27.165Z,-0.68
2019-03-27T03:45:58.518Z,-0.74
2019-03-27T03:48:29.695Z,-0.50
2019-03-27T03:51:03.207Z,-0.57
2019-03-27T03:53:35.197Z,-0.78
2019-03-27T03:56:06.565Z,-0.92
2019-03-27T03:58:39.439Z,-0.93
2019-03-27T04:01:11.849Z,-0.89
2019-03-27T04:03:44.967Z,-0.97
2019-03-27T04:06:16.113Z,-1.02
2019-03-27T04:08:47.289Z,-0.96
2019-03-27T04:11:18.911Z,-0.88
2019-03-27T04:13:50.205Z,-0.93
2019-03-27T04:16:21.538Z,-1.05
2019-03-27T04:18:52.719Z,-1.01
2019-03-27T04:21:26.944Z,-1.01
2019-03-27T04:23:57.163Z,-0.84
2019-03-27T04:26:28.435Z,-1.00
2019-03-27T04:28:59.762Z,-1.10
2019-03-27T04:31:30.976Z,-1.18
2019-03-27T04:34:02.149Z,-0.89
2019-03-27T04:36:34.032Z,-0.94
2019-03-27T04:39:05.994Z,-1.04
2019-03-27T04:41:37.267Z,-0.88
2019-03-27T04:44:08.711Z,-0.91
2019-03-27T04:46:40.062Z,-0.88
2019-03-27T04:49:11.562Z,-0.96
2019-03-27T04:51:42.929Z,-0.99
2019-03-27T04:54:14.255Z,-0.98
2019-03-27T04:56:45.718Z,-1.03
2019-03-27T04:59:17.149Z,-1.00
2019-03-27T05:01:48.595Z,-0.84
2019-03-27T05:04:21.118Z,-0.69
2019-03-27T05:06:52.695Z,-0.74
2019-03-27T05:09:24.057Z,-0.55
2019-03-27T05:11:55.381Z,-0.52
2019-03-27T05:14:26.903Z,-0.47
2019-03-27T05:16:58.333Z,-0.43
2019-03-27T05:19:29.732Z,-0.17
2019-03-27T05:22:01.360Z,-0.05
2019-03-27T05:24:33.256Z,-0.20
2019-03-27T05:27:04.579Z,0.12
2019-03-27T05:29:35.937Z,0.45
2019-03-27T05:32:07.233Z,0.63
2019-03-27T05:34:38.906Z,0.82
2019-03-27T05:37:10.143Z,0.89
2019-03-27T05:39:41.972Z,0.95
2019-03-27T05:42:13.791Z,1.18
2019-03-27T05:44:45.035Z,1.70
2019-03-27T05:47:16.352Z,2.57
2019-03-27T05:49:47.771Z,3.27
2019-03-27T05:52:19.035Z,3.94
2019-03-27T05:54:50.241Z,5.06
2019-03-27T05:57:21.473Z,5.82
2019-03-27T05:59:52.794Z,6.74
2019-03-27T06:02:23.909Z,7.36
2019-03-27T06:04:55.108Z,7.94
2019-03-27T06:07:26.360Z,8.70
2019-03-27T06:09:57.802Z,9.15
2019-03-27T06:12:29.001Z,9.10
2019-03-27T06:15:00.498Z,9.89
2019-03-27T06:17:31.732Z,11.40
2019-03-27T06:20:03.299Z,10.83
2019-03-27T06:22:34.663Z,11.27
2019-03-27T06:25:06.449Z,11.49
2019-03-27T06:27:37.645Z,12.31
2019-03-27T06:30:12.033Z,12.42
2019-03-27T06:32:43.269Z,12.18
2019-03-27T06:35:14.868Z,12.68
2019-03-27T06:37:45.980Z,12.93
2019-03-27T06:40:17.344Z,13.12
2019-03-27T06:42:48.619Z,13.12
2019-03-27T06:45:19.910Z,13.03
2019-03-27T06:47:51.109Z,13.37
2019-03-27T06:50:22.359Z,14.17
2019-03-27T06:52:53.629Z,14.54
2019-03-27T06:55:24.999Z,15.16
2019-03-27T06:57:56.308Z,14.90
2019-03-27T07:00:38.584Z,15.39
2019-03-27T07:03:10.478Z,15.16
2019-03-27T07:05:41.668Z,14.83
2019-03-27T07:08:12.978Z,16.37
2019-03-27T07:10:44.159Z,16.96
2019-03-27T07:13:15.338Z,16.51
2019-03-27T07:15:46.489Z,17.00
2019-03-27T07:18:17.690Z,18.16
2019-03-27T07:20:48.914Z,17.93
2019-03-27T07:23:20.235Z,17.21
2019-03-27T07:25:51.522Z,16.13
2019-03-27T07:28:22.851Z,16.22
2019-03-27T07:30:53.951Z,17.38
2019-03-27T07:33:25.341Z,17.51
2019-03-27T07:35:56.514Z,17.03
2019-03-27T07:38:27.815Z,16.73
2019-03-27T07:40:59.104Z,15.39
2019-03-27T07:43:30.430Z,16.16
2019-03-27T07:46:01.680Z,16.30
2019-03-27T07:48:32.896Z,15.38
2019-03-27T07:51:04.092Z,16.34
2019-03-27T07:53:35.339Z,17.14
2019-03-27T07:56:06.728Z,16.31
2019-03-27T07:58:37.916Z,17.56
2019-03-27T08:01:09.116Z,17.43
2019-03-27T08:03:40.448Z,17.44
2019-03-27T08:06:11.631Z,17.86
2019-03-27T08:08:42.855Z,17.39
2019-03-27T08:11:14.783Z,17.43
2019-03-27T08:13:46.082Z,14.71
2019-03-27T08:16:17.358Z,14.78
2019-03-27T08:18:48.733Z,16.12
2019-03-27T08:21:19.987Z,16.48
2019-03-27T08:23:51.127Z,17.51
2019-03-27T08:26:22.354Z,18.40
2019-03-27T08:28:53.689Z,17.64
2019-03-27T08:31:24.829Z,18.43
2019-03-27T08:33:56.174Z,17.72
2019-03-27T08:36:27.468Z,18.60
2019-03-27T08:38:58.697Z,18.24
2019-03-27T08:41:29.889Z,19.43
2019-03-27T08:44:01.291Z,19.63
2019-03-27T08:46:32.572Z,19.91
2019-03-27T08:49:03.899Z,17.10
2019-03-27T08:51:35.249Z,18.43
2019-03-27T08:54:06.544Z,19.50
2019-03-27T08:56:37.776Z,20.19
2019-03-27T08:59:09.169Z,18.07
2019-03-27T09:01:40.613Z,18.27
2019-03-27T09:04:11.822Z,18.09
2019-03-27T09:06:43.268Z,19.34
2019-03-27T09:09:14.524Z,19.68
2019-03-27T09:11:45.941Z,20.27
2019-03-27T09:14:17.195Z,20.13
2019-03-27T09:16:48.388Z,19.37
2019-03-27T09:19:19.659Z,20.08
2019-03-27T09:21:50.773Z,21.00
2019-03-27T09:24:22.222Z,18.62
2019-03-27T09:26:53.527Z,19.12
2019-03-27T09:29:24.890Z,18.83
2019-03-27T09:31:56.340Z,18.08
2019-03-27T09:34:27.721Z,18.73
2019-03-27T09:36:58.952Z,20.18
2019-03-27T09:39:30.168Z,19.56
2019-03-27T09:42:01.547Z,18.88
2019-03-27T09:44:32.749Z,20.33
2019-03-27T09:47:04.054Z,19.58
2019-03-27T09:49:48.939Z,18.75
2019-03-27T09:52:09.108Z,18.44
2019-03-27T09:54:40.351Z,18.85
2019-03-27T09:57:11.696Z,19.59
2019-03-27T09:59:42.971Z,19.98
2019-03-27T10:02:14.229Z,19.46
2019-03-27T10:04:45.406Z,17.42
2019-03-27T10:07:16.758Z,18.06
2019-03-27T10:09:50.313Z,17.77
2019-03-27T10:12:21.050Z,18.83
2019-03-27T10:14:52.299Z,19.35
2019-03-27T10:17:23.598Z,21.48
2019-03-27T10:20:03.426Z,20.05
2019-03-27T10:22:27.793Z,19.81
2019-03-27T10:24:59.022Z,19.66
2019-03-27T10:27:30.244Z,20.24
2019-03-27T10:30:01.366Z,20.69
2019-03-27T10:32:32.606Z,17.17
2019-03-27T10:35:04.040Z,15.15
2019-03-27T10:37:35.340Z,16.11
2019-03-27T10:40:07.675Z,15.21
2019-03-27T10:42:38.947Z,17.25
2019-03-27T10:45:11.064Z,19.58
2019-03-27T10:47:42.312Z,19.65
2019-03-27T10:52:47.438Z,19.85
2019-03-27T10:55:18.753Z,19.28
2019-03-27T10:57:50.784Z,17.34
2019-03-27T11:00:22.250Z,18.77
2019-03-27T11:02:53.538Z,21.95
2019-03-27T11:05:24.780Z,23.07
2019-03-27T11:07:55.983Z,21.62
2019-03-27T11:10:27.296Z,19.38
2019-03-27T11:12:58.428Z,16.55
2019-03-27T11:15:29.814Z,14.74
2019-03-27T11:18:01.101Z,14.44
2019-03-27T11:20:32.378Z,13.48
2019-03-27T11:23:03.857Z,13.95
2019-03-27T11:25:35.221Z,14.33
2019-03-27T11:28:06.428Z,15.11
2019-03-27T11:30:40.599Z,15.07
2019-03-27T11:33:12.200Z,14.61
2019-03-27T11:35:43.685Z,13.66
2019-03-27T11:38:14.926Z,14.25
2019-03-27T11:40:46.375Z,15.37
2019-03-27T11:43:17.652Z,15.26
2019-03-27T11:45:49.016Z,14.96
2019-03-27T11:48:20.219Z,13.62
2019-03-27T11:50:51.419Z,12.80
2019-03-27T11:53:22.723Z,13.08
2019-03-27T11:55:54.141Z,13.97
2019-03-27T11:58:25.517Z,14.40
2019-03-27T12:00:57.036Z,14.22
2019-03-27T12:03:28.565Z,14.18
2019-03-27T12:06:00.069Z,14.25
2019-03-27T12:08:31.369Z,12.65
2019-03-27T12:11:02.609Z,13.00
2019-03-27T12:13:33.823Z,13.19
2019-03-27T12:16:05.330Z,13.84
2019-03-27T12:18:36.580Z,13.77
2019-03-27T12:21:08.013Z,13.63
2019-03-27T12:23:39.368Z,13.02
2019-03-27T12:26:10.730Z,12.38
2019-03-27T12:28:41.900Z,11.94
2019-03-27T12:31:13.096Z,12.45
2019-03-27T12:33:44.385Z,12.38
2019-03-27T12:36:15.796Z,11.87
2019-03-27T12:38:47.139Z,11.54
2019-03-27T12:41:18.295Z,11.15
2019-03-27T12:43:49.688Z,11.24
2019-03-27T12:46:21.726Z,11.27
2019-03-27T12:48:53.206Z,11.65
2019-03-27T12:51:24.660Z,11.57
2019-03-27T12:53:55.877Z,11.00
2019-03-27T12:56:27.170Z,10.85
2019-03-27T12:58:58.344Z,11.06
2019-03-27T13:01:29.722Z,11.28
2019-03-27T13:04:00.909Z,11.75
2019-03-27T13:06:32.335Z,12.06
2019-03-27T13:09:04.974Z,12.21
2019-03-27T13:11:36.871Z,12.22
2019-03-27T13:14:08.399Z,11.90
2019-03-27T13:16:39.665Z,11.91
2019-03-27T13:19:11.089Z,12.15
2019-03-27T13:21:42.489Z,12.49
2019-03-27T13:24:13.839Z,12.44
2019-03-27T13:26:45.046Z,12.54
2019-03-27T13:29:16.340Z,12.76
2019-03-27T13:31:47.668Z,12.67
2019-03-27T13:34:18.944Z,11.89
2019-03-27T13:36:52.081Z,11.71
2019-03-27T13:39:23.363Z,11.12
2019-03-27T13:41:54.594Z,10.77
2019-03-27T13:44:36.279Z,11.33
2019-03-27T13:46:59.019Z,11.82
2019-03-27T13:49:30.374Z,11.77
2019-03-27T13:52:01.649Z,11.98
2019-03-27T13:54:33.248Z,12.04
2019-03-27T13:57:04.667Z,12.12
2019-03-27T13:59:35.859Z,11.72
2019-03-27T14:02:07.270Z,11.53
2019-03-27T14:04:38.595Z,11.14
2019-03-27T14:07:10.007Z,11.04
2019-03-27T14:09:41.474Z,10.41
2019-03-27T14:12:12.800Z,10.34
2019-03-27T14:14:50.592Z,10.54
2019-03-27T14:17:18.014Z,10.56
2019-03-27T14:19:49.589Z,10.49
2019-03-27T14:22:20.901Z,10.24
2019-03-27T14:24:52.231Z,10.21
2019-03-27T14:27:23.481Z,10.03
2019-03-27T14:29:54.805Z,10.18
2019-03-27T14:32:26.039Z,10.05
2019-03-27T14:34:57.293Z,9.96
2019-03-27T14:37:28.418Z,9.97
2019-03-27T14:39:59.672Z,9.94
2019-03-27T14:42:30.910Z,9.89
2019-03-27T14:45:02.290Z,9.78
2019-03-27T14:47:33.526Z,9.55
2019-03-27T14:50:05.287Z,9.48
2019-03-27T14:52:36.422Z,9.45
2019-03-27T14:55:08.496Z,9.45
2019-03-27T14:57:40.585Z,9.58
2019-03-27T15:00:12.854Z,9.55
2019-03-27T15:02:44.286Z,9.46
2019-03-27T15:05:16.304Z,9.47
2019-03-27T15:07:47.631Z,9.46
2019-03-27T15:10:18.981Z,9.41
2019-03-27T15:12:50.177Z,9.42
2019-03-27T15:15:21.478Z,9.44
2019-03-27T15:17:52.710Z,9.41
2019-03-27T15:20:23.935Z,9.42
2019-03-27T15:22:55.339Z,9.41
2019-03-27T15:25:26.717Z,9.36
2019-03-27T15:27:58.624Z,9.37
2019-03-27T15:30:29.990Z,9.22
2019-03-27T15:33:04.321Z,9.33
2019-03-27T15:35:35.604Z,9.26
2019-03-27T15:38:06.994Z,9.26
2019-03-27T15:40:43.928Z,9.33
2019-03-27T15:43:15.364Z,9.31
2019-03-27T15:45:46.665Z,9.35
2019-03-27T15:48:18.149Z,9.26
2019-03-27T15:50:58.411Z,9.21
2019-03-27T15:53:22.924Z,9.19
2019-03-27T15:55:54.570Z,9.18
2019-03-27T15:58:25.972Z,9.17
2019-03-27T16:00:57.315Z,9.12
2019-03-27T16:03:28.580Z,9.07
2019-03-27T16:05:59.926Z,8.94
2019-03-27T16:08:31.183Z,8.76
2019-03-27T16:11:02.525Z,8.61
2019-03-27T16:13:33.774Z,8.45
2019-03-27T16:16:04.955Z,8.29
2019-03-27T16:18:36.319Z,8.24
2019-03-27T16:21:07.745Z,8.18
2019-03-27T16:23:39.092Z,8.13
2019-03-27T16:26:13.419Z,7.94
2019-03-27T16:28:44.764Z,7.83
2019-03-27T16:31:16.075Z,7.70
2019-03-27T16:33:47.379Z,7.72
2019-03-27T16:36:18.675Z,7.71
2019-03-27T16:38:50.046Z,7.62
2019-03-27T16:41:21.454Z,7.60
2019-03-27T16:43:52.934Z,7.51
2019-03-27T16:46:24.353Z,7.46
2019-03-27T16:48:55.631Z,7.48
2019-03-27T16:51:32.008Z,7.46
2019-03-27T16:54:06.434Z,7.40
2019-03-27T16:56:38.348Z,7.37
2019-03-27T16:59:11.775Z,7.30
2019-03-27T17:01:47.415Z,7.23
2019-03-27T17:04:20.408Z,7.22
2019-03-27T17:06:56.319Z,7.22
2019-03-27T17:09:31.069Z,7.20
2019-03-27T17:12:06.899Z,7.14
2019-03-27T17:14:38.198Z,7.16
2019-03-27T17:17:09.646Z,7.12
2019-03-27T17:19:42.608Z,7.04
2019-03-27T17:22:19.633Z,7.01
2019-03-27T17:24:47.169Z,6.97
2019-03-27T17:27:18.480Z,6.93
2019-03-27T17:29:49.788Z,6.91
2019-03-27T17:32:21.407Z,6.86
2019-03-27T17:34:59.399Z,6.90
2019-03-27T17:37:31.059Z,6.89
2019-03-27T17:40:02.251Z,6.87
2019-03-27T17:42:37.804Z,6.83
2019-03-27T17:45:12.339Z,6.82
2019-03-27T17:47:49.047Z,6.77
2019-03-27T17:50:22.837Z,6.78
2019-03-27T17:52:55.501Z,6.78
2019-03-27T17:55:27.468Z,6.79
2019-03-27T17:58:05.897Z,6.81
2019-03-27T18:00:55.550Z,6.80
2019-03-27T18:03:26.774Z,6.78
2019-03-27T18:05:59.300Z,6.78
2019-03-27T18:08:32.025Z,6.77
2019-03-27T18:11:03.470Z,6.76
2019-03-27T18:13:38.228Z,6.76
2019-03-27T18:16:09.648Z,6.78
2019-03-27T18:18:41.608Z,6.79
2019-03-27T18:21:16.854Z,6.78
2019-03-27T18:23:54.590Z,6.79
2019-03-27T18:26:34.939Z,6.80
2019-03-27T18:29:09.339Z,6.78
2019-03-27T18:31:46.964Z,6.79
2019-03-27T18:34:19.610Z,6.79
2019-03-27T18:36:50.883Z,6.79
2019-03-27T18:39:25.074Z,6.78
2019-03-27T18:41:58.584Z,6.76
2019-03-27T18:44:31.099Z,6.76
2019-03-27T18:47:02.514Z,6.76
2019-03-27T18:49:36.483Z,6.73
2019-03-27T18:52:21.800Z,6.73
2019-03-27T18:54:57.418Z,6.71
2019-03-27T18:57:29.300Z,6.71
2019-03-27T19:00:03.959Z,6.70
2019-03-27T19:02:40.179Z,6.68
2019-03-27T19:05:14.868Z,6.70
2019-03-27T19:07:50.614Z,6.70
2019-03-27T19:10:24.309Z,6.72
2019-03-27T19:13:06.368Z,6.70
2019-03-27T19:15:43.729Z,6.72
2019-03-27T19:18:17.414Z,6.72
2019-03-27T19:20:50.350Z,6.72
2019-03-27T19:23:22.998Z,6.73
2019-03-27T19:25:55.060Z,6.69
2019-03-27T19:28:29.788Z,6.68
2019-03-27T19:31:07.598Z,6.71
2019-03-27T19:33:43.550Z,6.66
2019-03-27T19:36:16.454Z,6.69
2019-03-27T19:38:51.958Z,6.70
2019-03-27T19:41:25.803Z,6.71
2019-03-27T19:44:02.699Z,6.72
2019-03-27T19:46:35.609Z,6.73
2019-03-27T19:49:08.219Z,6.73
2019-03-27T19:51:46.324Z,6.71
2019-03-27T19:54:26.913Z,6.72
2019-03-27T19:56:59.279Z,6.75
2019-03-27T19:59:31.523Z,6.73
2019-03-27T20:02:07.479Z,6.76
2019-03-27T20:04:44.169Z,6.78
2019-03-27T20:07:21.099Z,6.78
2019-03-27T20:10:00.399Z,6.80
2019-03-27T20:12:37.981Z,6.81
2019-03-27T20:15:12.800Z,6.83
2019-03-27T20:17:45.813Z,6.81
2019-03-27T20:20:18.358Z,6.82
2019-03-27T20:22:52.878Z,6.84
2019-03-27T20:25:28.788Z,6.87
2019-03-27T20:28:05.827Z,6.85
2019-03-27T20:30:37.123Z,6.86
2019-03-27T20:33:08.583Z,6.87
2019-03-27T20:35:47.700Z,6.89
2019-03-27T20:38:19.196Z,6.94
2019-03-27T20:40:54.193Z,6.97
2019-03-27T20:43:29.639Z,6.98
2019-03-27T20:46:07.698Z,6.98
2019-03-27T20:48:42.570Z,6.99
2019-03-27T20:51:16.419Z,7.02
2019-03-27T20:53:53.381Z,7.03
2019-03-27T20:56:25.046Z,7.02
2019-03-27T20:59:01.502Z,7.02
2019-03-27T21:01:32.954Z,7.03
2019-03-27T21:04:04.394Z,7.01
2019-03-27T21:06:38.842Z,7.02
2019-03-27T21:09:10.344Z,7.06
2019-03-27T21:11:44.162Z,7.06
2019-03-27T21:14:15.350Z,7.04
2019-03-27T21:16:47.768Z,7.03
2019-03-27T21:19:19.378Z,7.03
2019-03-27T21:21:50.555Z,7.01
2019-03-27T21:24:24.896Z,7.03
2019-03-27T21:26:56.264Z,7.04
2019-03-27T21:29:27.486Z,7.01
2019-03-27T21:31:58.831Z,6.95
2019-03-27T21:34:30.058Z,6.91
2019-03-27T21:37:01.369Z,6.88
2019-03-27T21:39:32.685Z,6.88
2019-03-27T21:42:04.060Z,6.89
2019-03-27T21:44:35.342Z,6.90
2019-03-27T21:47:06.797Z,6.90
2019-03-27T21:49:38.036Z,6.89
2019-03-27T21:52:09.340Z,6.91
2019-03-27T21:54:40.684Z,6.90
2019-03-27T21:57:12.174Z,6.91
2019-03-27T21:59:44.223Z,6.95
2019-03-27T22:02:15.474Z,6.96
2019-03-27T22:04:46.778Z,6.99
2019-03-27T22:07:19.479Z,7.02
2019-03-27T22:09:50.910Z,7.02
2019-03-27T22:12:22.132Z,7.01
2019-03-27T22:14:56.764Z,7.05
2019-03-27T22:17:27.999Z,7.05
2019-03-27T22:19:59.902Z,7.06
2019-03-27T22:22:31.120Z,7.06
2019-03-27T22:25:02.302Z,7.09
2019-03-27T22:27:33.469Z,7.07
2019-03-27T22:30:05.364Z,7.09
2019-03-27T22:32:36.541Z,7.08
2019-03-27T22:35:09.064Z,7.10
2019-03-27T22:37:40.400Z,7.11
2019-03-27T22:40:12.152Z,7.12
2019-03-27T22:42:43.395Z,7.13
2019-03-27T22:45:14.799Z,7.15
2019-03-27T22:47:45.904Z,7.13
2019-03-27T22:50:17.149Z,7.13
2019-03-27T22:52:48.296Z,7.15
2019-03-27T22:55:19.475Z,7.17
2019-03-27T22:57:50.750Z,7.17
2019-03-27T23:00:26.748Z,7.13
2019-03-27T23:02:58.001Z,7.16
2019-03-27T23:05:30.270Z,7.08
2019-03-27T23:08:01.780Z,7.02
2019-03-27T23:10:32.930Z,7.00
2019-03-27T23:13:04.227Z,6.96
2019-03-27T23:15:35.495Z,6.95
2019-03-27T23:18:07.204Z,6.93
2019-03-27T23:20:38.380Z,6.93
2019-03-27T23:23:09.681Z,6.95
2019-03-27T23:25:40.956Z,6.93
2019-03-27T23:28:12.065Z,6.95
2019-03-27T23:30:43.222Z,6.93
2019-03-27T23:33:14.438Z,6.96
2019-03-27T23:35:45.918Z,6.92
2019-03-27T23:38:16.988Z,6.91
2019-03-27T23:40:48.068Z,6.90
2019-03-27T23:43:19.319Z,6.90
2019-03-27T23:45:50.389Z,6.89
2019-03-27T23:48:21.541Z,6.86
2019-03-27T23:50:52.689Z,6.85
2019-03-27T23:53:23.981Z,6.83
2019-03-27T23:55:55.260Z,6.82
2019-03-27T23:58:26.470Z,6.84
